createdAt,value
2018-06-20T00:05:00.294Z,76.10
2018-06-20T00:10:03.887Z,76.20
2018-06-20T00:15:07.135Z,76.70
2018-06-20T00:20:10.180Z,76.10
2018-06-20T00:25:13.488Z,76.80
2018-06-20T00:30:16.859Z,76.60
2018-06-20T00:35:19.869Z,76.70
2018-06-20T00:40:23.059Z,77.00
2018-06-20T00:45:26.281Z,76.90
2018-06-20T00:50:29.289Z,77.50
2018-06-20T00:55:49.371Z,77.40
2018-06-20T01:00:52.609Z,77.90
2018-06-20T01:05:55.591Z,77.70
2018-06-20T01:10:58.585Z,77.60
2018-06-20T01:16:01.617Z,76.90
2018-06-20T01:21:04.823Z,76.10
2018-06-20T01:26:07.967Z,75.60
2018-06-20T01:31:11.234Z,75.20
2018-06-20T01:36:14.427Z,74.70
2018-06-20T01:41:17.437Z,74.20
2018-06-20T01:46:20.604Z,74.10
2018-06-20T01:51:23.681Z,75.00
2018-06-20T02:01:29.947Z,75.00
2018-06-20T02:06:32.964Z,76.20
2018-06-20T02:11:36.103Z,77.10
2018-06-20T02:16:39.142Z,77.20
2018-06-20T02:21:42.875Z,76.80
2018-06-20T02:26:46.018Z,77.10
2018-06-20T02:31:49.316Z,77.40
2018-06-20T02:36:52.396Z,78.90
2018-06-20T02:41:55.419Z,80.30
2018-06-20T02:46:58.419Z,80.80
2018-06-20T02:52:01.644Z,80.00
2018-06-20T02:57:04.683Z,80.70
2018-06-20T03:02:08.066Z,79.50
2018-06-20T03:07:11.039Z,80.40
2018-06-20T03:12:14.067Z,80.20
2018-06-20T03:17:17.126Z,79.90
2018-06-20T03:22:20.153Z,78.80
2018-06-20T03:27:23.453Z,78.90
2018-06-20T03:32:26.505Z,79.60
2018-06-20T03:37:29.808Z,79.60
2018-06-20T03:42:33.133Z,78.80
2018-06-20T03:47:36.428Z,77.10
2018-06-20T03:52:39.441Z,77.70
2018-06-20T03:57:42.655Z,77.70
2018-06-20T04:02:45.757Z,77.80
2018-06-20T04:07:48.784Z,78.00
2018-06-20T04:12:51.843Z,78.70
2018-06-20T04:17:54.928Z,78.90
2018-06-20T04:22:57.946Z,79.20
2018-06-20T04:28:01.084Z,78.50
2018-06-20T04:33:04.088Z,78.60
2018-06-20T04:38:07.491Z,77.70
2018-06-20T04:43:10.497Z,77.10
2018-06-20T04:48:13.513Z,76.90
2018-06-20T04:53:17.212Z,77.40
2018-06-20T04:58:20.472Z,76.10
2018-06-20T05:03:23.599Z,75.20
2018-06-20T05:08:27.037Z,74.70
2018-06-20T05:13:30.117Z,74.70
2018-06-20T05:18:33.215Z,74.40
2018-06-20T05:23:36.373Z,73.60
2018-06-20T05:28:39.360Z,74.30
2018-06-20T05:33:42.413Z,74.10
2018-06-20T05:38:45.580Z,71.90
2018-06-20T05:43:48.566Z,69.40
2018-06-20T05:48:51.597Z,67.10
2018-06-20T05:53:54.854Z,65.40
2018-06-20T05:58:58.002Z,63.30
2018-06-20T06:04:01.027Z,58.00
2018-06-20T06:09:06.591Z,53.30
2018-06-20T06:14:09.620Z,51.30
2018-06-20T06:19:12.865Z,51.00
2018-06-20T06:24:16.206Z,48.10
2018-06-20T06:29:19.187Z,46.80
2018-06-20T06:34:22.405Z,45.90
2018-06-20T06:39:25.619Z,42.40
2018-06-20T06:44:28.604Z,37.50
2018-06-20T06:49:31.815Z,37.90
2018-06-20T06:54:34.775Z,38.40
2018-06-20T06:59:37.938Z,37.80
2018-06-20T07:04:40.902Z,38.10
2018-06-20T07:09:44.046Z,35.90
2018-06-20T07:14:47.146Z,31.80
2018-06-20T07:19:50.182Z,30.60
2018-06-20T07:24:53.114Z,29.50
2018-06-20T07:29:56.293Z,29.30
2018-06-20T07:34:59.575Z,28.40
2018-06-20T07:40:02.594Z,28.20
2018-06-20T07:45:05.725Z,30.40
2018-06-20T07:50:08.687Z,26.80
2018-06-20T07:55:11.654Z,25.50
2018-06-20T08:00:20.494Z,25.00
2018-06-20T08:05:29.246Z,24.30
2018-06-20T08:10:38.059Z,25.00
2018-06-20T08:15:46.717Z,25.60
2018-06-20T08:20:49.796Z,24.80
2018-06-20T08:25:52.980Z,24.80
2018-06-20T08:30:55.930Z,25.00
2018-06-20T08:35:58.955Z,23.40
2018-06-20T08:41:01.946Z,24.70
2018-06-20T08:46:05.016Z,24.60
2018-06-20T08:51:07.974Z,25.50
2018-06-20T08:56:11.075Z,27.40
2018-06-20T09:01:14.012Z,27.20
2018-06-20T09:06:22.751Z,29.90
2018-06-20T09:11:31.357Z,30.20
2018-06-20T09:16:40.290Z,29.70
2018-06-20T09:21:43.664Z,29.30
2018-06-20T09:26:46.573Z,28.40
2018-06-20T09:31:49.542Z,27.50
2018-06-20T09:36:52.547Z,27.00
2018-06-20T09:41:55.545Z,26.50
2018-06-20T09:46:59.130Z,24.90
2018-06-20T09:52:02.235Z,26.40
2018-06-20T09:57:05.280Z,27.10
2018-06-20T10:02:14.279Z,29.30
2018-06-20T10:07:27.809Z,31.50
2018-06-20T10:12:37.332Z,31.20
2018-06-20T10:17:40.717Z,30.20
2018-06-20T10:22:43.728Z,29.90
2018-06-20T10:27:46.950Z,30.60
2018-06-20T10:32:50.237Z,30.30
2018-06-20T10:37:53.328Z,30.60
2018-06-20T10:42:56.265Z,29.90
2018-06-20T10:47:59.378Z,29.40
2018-06-20T10:53:02.456Z,28.00
2018-06-20T10:58:12.576Z,29.60
2018-06-20T11:03:21.346Z,25.70
2018-06-20T11:08:29.903Z,24.30
2018-06-20T11:13:33.104Z,22.40
2018-06-20T11:18:39.334Z,22.50
2018-06-20T11:23:42.445Z,21.50
2018-06-20T11:28:45.718Z,21.50
2018-06-20T11:33:48.901Z,21.80
2018-06-20T11:38:52.132Z,24.40
2018-06-20T11:43:55.155Z,26.70
2018-06-20T11:48:58.213Z,28.80
2018-06-20T11:54:01.268Z,30.20
2018-06-20T12:04:18.960Z,30.80
2018-06-20T12:09:27.626Z,31.40
2018-06-20T12:14:36.276Z,31.80
2018-06-20T12:19:44.909Z,31.50
2018-06-20T12:24:53.693Z,31.30
2018-06-20T12:30:09.471Z,31.40
2018-06-20T12:35:18.507Z,30.40
2018-06-20T12:40:26.259Z,29.90
2018-06-20T12:50:32.402Z,29.00
2018-06-20T12:55:35.676Z,26.90
2018-06-20T13:00:38.822Z,27.70
2018-06-20T13:05:42.071Z,26.40
2018-06-20T13:10:45.218Z,26.30
2018-06-20T13:15:48.294Z,26.20
2018-06-20T13:20:51.397Z,27.70
2018-06-20T13:25:54.459Z,29.70
2018-06-20T13:31:03.145Z,30.30
2018-06-20T13:36:11.888Z,28.80
2018-06-20T13:41:20.828Z,27.90
2018-06-20T13:46:29.639Z,28.70
2018-06-20T13:51:32.860Z,28.90
2018-06-20T13:56:35.826Z,28.90
2018-06-20T14:01:38.859Z,28.00
2018-06-20T14:06:42.287Z,28.90
2018-06-20T14:11:46.209Z,28.80
2018-06-20T14:16:49.296Z,28.20
2018-06-20T14:21:52.244Z,28.50
2018-06-20T14:26:55.212Z,28.90
2018-06-20T14:33:06.881Z,28.80
2018-06-20T14:38:15.729Z,28.30
2018-06-20T14:43:24.720Z,29.10
2018-06-20T14:48:27.901Z,30.40
2018-06-20T14:53:30.871Z,29.90
2018-06-20T14:58:33.870Z,30.10
2018-06-20T15:03:37.005Z,27.80
2018-06-20T15:08:39.952Z,29.10
2018-06-20T15:13:42.898Z,26.50
2018-06-20T15:18:46.106Z,26.70
2018-06-20T15:23:49.468Z,24.70
2018-06-20T15:28:58.028Z,24.50
2018-06-20T15:34:06.557Z,24.80
2018-06-20T15:39:09.500Z,25.30
2018-06-20T15:44:12.651Z,26.20
2018-06-20T15:49:15.625Z,26.60
2018-06-20T15:54:18.602Z,27.60
2018-06-20T15:59:21.738Z,27.00
2018-06-20T16:04:24.718Z,26.60
2018-06-20T16:09:33.324Z,26.50
2018-06-20T16:14:36.315Z,27.60
2018-06-20T16:19:45.069Z,28.40
2018-06-20T16:24:53.594Z,27.50
2018-06-20T16:30:02.257Z,27.50
2018-06-20T16:35:05.535Z,28.30
2018-06-20T16:40:08.479Z,27.60
2018-06-20T16:45:13.499Z,28.00
2018-06-20T16:50:16.446Z,29.00
2018-06-20T16:55:19.519Z,29.70
2018-06-20T17:00:22.489Z,29.40
2018-06-20T17:05:25.481Z,29.70
2018-06-20T17:10:28.460Z,30.50
2018-06-20T17:15:37.167Z,29.90
2018-06-20T17:20:45.871Z,30.10
2018-06-20T17:30:51.767Z,33.80
2018-06-20T17:35:54.843Z,31.50
2018-06-20T17:40:58.076Z,32.60
2018-06-20T17:46:01.108Z,32.50
2018-06-20T17:51:04.089Z,33.60
2018-06-20T17:56:07.183Z,32.70
2018-06-20T18:01:11.852Z,33.80
2018-06-20T18:06:20.650Z,36.50
2018-06-20T18:11:29.468Z,32.70
2018-06-20T18:16:38.143Z,31.40
2018-06-20T18:21:41.215Z,32.20
2018-06-20T18:26:44.260Z,32.20
2018-06-20T18:31:47.350Z,31.90
2018-06-20T18:36:50.396Z,32.40
2018-06-20T18:41:53.475Z,32.60
2018-06-20T18:46:56.548Z,33.00
2018-06-20T18:51:59.967Z,33.40
2018-06-20T18:57:02.962Z,33.70
2018-06-20T19:02:11.764Z,34.50
2018-06-20T19:07:20.414Z,35.10
2018-06-20T19:12:24.645Z,36.50
2018-06-20T19:17:27.729Z,39.20
2018-06-20T19:22:30.797Z,40.70
2018-06-20T19:27:33.816Z,42.50
2018-06-20T19:32:37.022Z,43.80
2018-06-20T19:37:40.047Z,45.90
2018-06-20T19:42:43.050Z,48.30
2018-06-20T19:47:46.192Z,49.20
2018-06-20T19:52:49.451Z,49.90
2018-06-20T19:57:52.624Z,51.00
2018-06-20T20:02:55.797Z,52.00
2018-06-20T20:07:59.072Z,52.00
2018-06-20T20:13:02.341Z,52.30
2018-06-20T20:18:05.317Z,51.70
2018-06-20T20:23:08.299Z,52.20
2018-06-20T20:28:11.266Z,50.80
2018-06-20T20:33:14.267Z,51.00
2018-06-20T20:38:17.238Z,52.20
2018-06-20T20:43:20.436Z,53.50
2018-06-20T20:48:23.513Z,54.90
2018-06-20T20:53:27.040Z,55.70
2018-06-20T20:58:30.074Z,56.80
2018-06-20T21:03:33.073Z,57.70
2018-06-20T21:08:36.242Z,57.00
2018-06-20T21:13:39.484Z,57.50
2018-06-20T21:23:45.556Z,58.70
2018-06-20T21:28:48.760Z,58.20
2018-06-20T21:33:51.882Z,59.00
2018-06-20T21:38:55.069Z,60.20
2018-06-20T21:43:58.087Z,60.40
2018-06-20T21:49:01.203Z,60.40
2018-06-20T21:54:04.195Z,60.70
2018-06-20T21:59:07.259Z,61.10
2018-06-20T22:04:10.293Z,61.00
2018-06-20T22:09:13.428Z,61.70
2018-06-20T22:14:28.376Z,61.50
2018-06-20T22:19:31.332Z,62.80
2018-06-20T22:24:34.716Z,63.70
2018-06-20T22:29:37.711Z,63.70
2018-06-20T22:34:41.734Z,65.30
2018-06-20T22:39:44.948Z,66.20
2018-06-20T22:44:47.979Z,66.70
2018-06-20T22:49:51.132Z,66.80
2018-06-20T22:54:54.167Z,67.60
2018-06-20T22:59:57.198Z,67.30
2018-06-20T23:10:03.792Z,64.90
2018-06-20T23:15:06.997Z,65.60
2018-06-20T23:20:10.053Z,66.90
2018-06-20T23:25:13.051Z,67.30
2018-06-20T23:30:16.221Z,67.20
2018-06-20T23:35:19.211Z,67.70
2018-06-20T23:40:22.323Z,67.10
2018-06-20T23:45:25.335Z,65.70
2018-06-20T23:50:28.352Z,66.60
2018-06-20T23:55:31.369Z,68.50
